Terminal Aerodrome Forecast
Issued by NWS Sioux Falls, SD

Home | Current Version | Previous Version | Text Only | Print | Product List | Glossary On
Versions: 1 2 3 4 5 6 7 8 9 10 11 12 13 14 15 16 17 18 19 20 21 22
000
FTUS43 KFSD 241739
TAFFSD
TAF
KFSD 241739Z 2418/2518 20015G25KT P6SM VCSH SCT035 BKN050
     FM242000 28010G18KT 5SM SHRA VCTS SCT010 BKN015 OVC050CB
     FM250100 35008KT 4SM -SHRA BKN008 OVC012
     FM250600 34008KT 4SM SHRA OVC006=

USA.gov is the U.S. government's official web portal to all federal, state and local government web resources and services.